EKAH/AAR METAR and TAF weather

Enter ICAO airport designator
Station Type Date Time Source
EKAH METAR 2024/04/17 18:20 UTC NOAA

EKAH 171820Z AUTO 14003KT 9999 NCD 08/M01 Q1011


Station Type Date Time Source
EKAH Decoded METAR 2024/04/17 18:20 UTC NOAA

Tirstrup, Denmark (EKAH) 56-18N 010-37E 25M
Apr 17, 2024 - 02:20 PM EDT / 2024.04.17 1820 UTC
Wind: from the SE (140 degrees) at 3 MPH (3 KT):0
Visibility: greater than 7 mile(s):0
Temperature: 46 F (8 C)
Dew Point: 30 F (-1 C)
Relative Humidity: 52%
Pressure (altimeter): 29.85 in. Hg (1011 hPa)
ob: EKAH 171820Z AUTO 14003KT 9999 NCD 08/M01 Q1011
cycle: 18

Station Type Date Time Source
EKAH TAF 2024/04/17 18:30 UTC NOAA